Time;durP1;ratioP1;P1;durP2;ratioP2;P2;SDS_P1;SDS_P2;PMS_P1;PMS_P2;Temp;Humidity;BMP_temperature;BMP_pressure;BME280_temperature;BME280_humidity;BME280_pressure;Samples;Min_cycle;Max_cycle;Signal;HPM_P1;HPM_P2
2022/12/14 00:02:45;;;;;;;126.87;49.63;;;;;;;;;;6235203;28;20017;-74
2022/12/14 00:05:45;;;;;;;132.10;53.92;;;;;;;;;;6234643;28;20532;-73
2022/12/14 00:08:46;;;;;;;130.33;58.07;;;;;;;;;;6237362;28;20018;-73
2022/12/14 00:11:46;;;;;;;139.07;60.28;;;;;;;;;;6234496;28;20041;-74
2022/12/14 00:14:46;;;;;;;149.93;59.70;;;;;;;;;;6235533;28;20023;-73
2022/12/14 00:17:47;;;;;;;142.23;60.70;;;;;;;;;;6248923;28;20017;-72
2022/12/14 00:20:47;;;;;;;138.07;60.83;;;;;;;;;;6239485;28;20666;-72
2022/12/14 00:23:49;;;;;;;163.38;67.50;;;;;;;;;;6233926;28;21115;-72
2022/12/14 00:26:49;;;;;;;;;;;;;;;;;;6236526;28;20040;-72
2022/12/14 00:29:49;;;;;;;141.37;56.17;;;;;;;;;;6236562;28;20408;-72
2022/12/14 00:32:50;;;;;;;140.20;60.40;;;;;;;;;;6243301;28;20017;-72
2022/12/14 00:35:50;;;;;;;121.70;56.13;;;;;;;;;;6242161;28;20089;-72
2022/12/14 00:38:50;;;;;;;106.15;49.50;;;;;;;;;;6236395;28;20470;-72
2022/12/14 00:41:50;;;;;;;118.30;56.53;;;;;;;;;;6236407;28;20014;-72
2022/12/14 00:44:51;;;;;;;129.70;57.47;;;;;;;;;;6235874;28;20022;-71
2022/12/14 00:47:51;;;;;;;124.45;55.40;;;;;;;;;;6237054;28;20389;-72
2022/12/14 00:50:52;;;;;;;123.63;54.47;;;;;;;;;;6236423;28;20207;-72
2022/12/14 00:53:52;;;;;;;128.20;53.70;;;;;;;;;;6236457;28;20049;-71
2022/12/14 00:56:52;;;;;;;91.77;39.93;;;;;;;;;;6233117;28;20026;-71
2022/12/14 00:59:52;;;;;;;105.57;47.40;;;;;;;;;;6235123;28;20114;-72
2022/12/14 01:02:52;;;;;;;113.18;47.22;;;;;;;;;;6232756;28;20021;-71
2022/12/14 01:05:52;;;;;;;86.85;39.28;;;;;;;;;;6232620;28;20271;-72
2022/12/14 01:08:53;;;;;;;117.33;51.17;;;;;;;;;;6235101;28;20029;-72
2022/12/14 01:11:53;;;;;;;121.53;49.80;;;;;;;;;;6237709;28;20580;-71
2022/12/14 01:14:54;;;;;;;99.03;41.77;;;;;;;;;;6234615;28;20030;-71
2022/12/14 01:17:54;;;;;;;110.07;45.40;;;;;;;;;;6245960;28;20041;-71
2022/12/14 01:20:54;;;;;;;97.10;44.67;;;;;;;;;;6237265;28;20128;-71
2022/12/14 01:23:56;;;;;;;90.10;40.53;;;;;;;;;;6229513;28;20083;-71
2022/12/14 01:26:56;;;;;;;102.88;44.03;;;;;;;;;;6236517;28;20022;-71
2022/12/14 01:29:57;;;;;;;108.18;48.83;;;;;;;;;;6233182;28;20163;-71
2022/12/14 01:32:57;;;;;;;97.13;40.92;;;;;;;;;;6234991;28;20490;-72
2022/12/14 01:36:01;;;;;;;96.18;42.22;;;;;;;;;;6229502;28;20256;-71
2022/12/14 01:39:04;;;;;;;101.50;42.20;;;;;;;;;;6241848;28;20017;-71
2022/12/14 01:42:09;;;;;;;95.20;42.42;;;;;;;;;;6228930;28;20018;-72
2022/12/14 01:45:17;;;;;;;93.72;41.90;;;;;;;;;;6231060;28;20022;-71
2022/12/14 01:48:17;;;;;;;96.25;41.30;;;;;;;;;;6234365;28;20025;-71
2022/12/14 01:51:18;;;;;;;103.57;41.80;;;;;;;;;;6235119;28;20025;-71
2022/12/14 01:54:18;;;;;;;106.87;41.17;;;;;;;;;;6234213;28;20246;-71
2022/12/14 01:57:21;;;;;;;95.27;42.17;;;;;;;;;;6235478;28;20014;-71
2022/12/14 02:00:22;;;;;;;108.47;47.85;;;;;;;;;;6250648;28;20030;-71
2022/12/14 02:03:25;;;;;;;119.50;45.23;;;;;;;;;;6238295;28;20032;-71
2022/12/14 02:06:28;;;;;;;105.20;43.35;;;;;;;;;;6234499;28;20027;-71
2022/12/14 02:09:31;;;;;;;99.93;47.28;;;;;;;;;;6235950;28;20520;-71
2022/12/14 02:12:51;;;;;;;98.45;44.65;;;;;;;;;;6229763;28;20423;-71
2022/12/14 02:15:51;;;;;;;101.63;44.25;;;;;;;;;;6227173;28;20064;-71
2022/12/14 02:18:51;;;;;;;102.60;43.97;;;;;;;;;;6249783;28;20013;-70
2022/12/14 02:21:55;;;;;;;109.82;41.83;;;;;;;;;;6238204;28;20425;-71
2022/12/14 02:24:58;;;;;;;95.00;41.33;;;;;;;;;;6239142;28;20025;-70
2022/12/14 02:28:00;;;;;;;96.82;41.33;;;;;;;;;;6236052;28;20025;-70
2022/12/14 02:31:10;;;;;;;94.78;40.70;;;;;;;;;;6236825;28;20021;-71
2022/12/14 02:34:17;;;;;;;100.90;45.20;;;;;;;;;;6239196;28;20021;-70
2022/12/14 02:37:24;;;;;;;102.38;40.58;;;;;;;;;;6239069;28;20466;-70
2022/12/14 02:40:43;;;;;;;97.75;45.15;;;;;;;;;;6237788;28;20029;-70
2022/12/14 02:44:03;;;;;;;96.20;40.15;;;;;;;;;;6239373;28;20488;-70
2022/12/14 02:47:16;;;;;;;97.28;44.40;;;;;;;;;;6233856;28;20029;-70
2022/12/14 02:50:21;;;;;;;97.10;41.38;;;;;;;;;;6236416;28;20010;-70
2022/12/14 02:53:24;;;;;;;108.43;41.30;;;;;;;;;;6235574;28;20039;-70
2022/12/14 02:56:28;;;;;;;103.05;42.83;;;;;;;;;;6232121;28;20069;-70
2022/12/14 02:59:29;;;;;;;91.05;38.78;;;;;;;;;;6238735;28;20673;-70
2022/12/14 03:02:32;;;;;;;70.55;32.20;;;;;;;;;;6236365;28;20018;-70
2022/12/14 03:05:33;;;;;;;95.75;38.13;;;;;;;;;;6237872;28;20026;-70
2022/12/14 03:08:34;;;;;;;87.83;39.80;;;;;;;;;;6236539;28;20036;-70
2022/12/14 03:11:47;;;;;;;92.30;39.83;;;;;;;;;;6238939;28;20021;-70
2022/12/14 03:14:49;;;;;;;85.93;38.00;;;;;;;;;;6234516;28;20478;-70
2022/12/14 03:17:51;;;;;;;91.57;40.15;;;;;;;;;;6240576;28;20538;-70
2022/12/14 03:20:53;;;;;;;91.88;41.72;;;;;;;;;;6237973;28;20029;-70
2022/12/14 03:23:54;;;;;;;89.72;41.75;;;;;;;;;;6238189;28;20378;-70
2022/12/14 03:27:01;;;;;;;100.25;42.08;;;;;;;;;;6242201;28;20738;-70
2022/12/14 03:30:04;;;;;;;93.80;41.42;;;;;;;;;;6234422;28;20036;-70
2022/12/14 03:33:06;;;;;;;81.95;36.35;;;;;;;;;;6232709;28;20302;-70
2022/12/14 03:36:09;;;;;;;79.47;37.78;;;;;;;;;;6235311;28;20052;-70
2022/12/14 03:39:13;;;;;;;84.60;37.20;;;;;;;;;;6238388;28;20032;-70
2022/12/14 03:42:18;;;;;;;74.25;34.10;;;;;;;;;;6237405;28;20013;-70
2022/12/14 03:45:33;;;;;;;88.78;35.65;;;;;;;;;;6230473;28;20014;-70
2022/12/14 03:48:40;;;;;;;78.18;33.53;;;;;;;;;;6236676;28;20564;-70
2022/12/14 03:51:59;;;;;;;80.80;34.97;;;;;;;;;;6235703;28;20017;-70
2022/12/14 03:55:19;;;;;;;79.43;33.88;;;;;;;;;;6234228;28;20035;-70
2022/12/14 03:58:22;;;;;;;79.32;31.55;;;;;;;;;;6232189;28;20047;-71
2022/12/14 04:01:29;;;;;;;68.43;32.40;;;;;;;;;;6237006;28;20248;-70
2022/12/14 04:04:33;;;;;;;75.82;31.30;;;;;;;;;;6230205;28;20022;-70
2022/12/14 04:07:42;;;;;;;81.43;33.78;;;;;;;;;;6236570;28;20013;-70
2022/12/14 04:21:16;;;;;;;69.53;29.38;;;;;;;;;;6236584;28;20017;-70
2022/12/14 04:29:54;;;;;;;63.20;25.98;;;;;;;;;;6235472;28;20025;-70
2022/12/14 04:31:31;;;;;;;58.80;26.83;;;;;;;;;;6228853;28;20429;-70
2022/12/14 04:34:32;;;;;;;57.58;28.70;;;;;;;;;;6248444;28;20097;-70
2022/12/14 04:37:35;;;;;;;60.00;29.00;;;;;;;;;;6231844;28;20464;-71
2022/12/14 04:40:41;;;;;;;52.10;23.80;;;;;;;;;;6238331;28;20134;-70
2022/12/14 04:43:43;;;;;;;60.03;25.77;;;;;;;;;;6232339;28;20056;-70
2022/12/14 04:46:44;;;;;;;62.28;26.05;;;;;;;;;;6231786;28;20017;-70
2022/12/14 04:49:49;;;;;;;64.68;26.52;;;;;;;;;;6235923;28;20445;-70
2022/12/14 04:52:51;;;;;;;81.45;32.30;;;;;;;;;;6236720;28;20029;-71
2022/12/14 04:55:56;;;;;;;65.15;27.77;;;;;;;;;;6230252;28;20083;-71
2022/12/14 04:58:56;;;;;;;69.55;28.38;;;;;;;;;;6236529;28;20421;-71
2022/12/14 05:02:02;;;;;;;58.30;21.47;;;;;;;;;;6226597;28;20025;-71
2022/12/14 05:05:21;;;;;;;53.60;23.65;;;;;;;;;;6235728;28;20571;-71
2022/12/14 05:08:26;;;;;;;46.45;21.95;;;;;;;;;;6232503;28;20079;-71
2022/12/14 05:11:33;;;;;;;54.45;23.02;;;;;;;;;;6236021;28;20749;-71
2022/12/14 05:14:36;;;;;;;56.08;24.95;;;;;;;;;;6240180;28;20018;-71
2022/12/14 05:17:37;;;;;;;52.50;24.25;;;;;;;;;;6237205;28;20028;-71
2022/12/14 05:20:37;;;;;;;38.93;18.93;;;;;;;;;;6237104;28;20021;-71
2022/12/14 05:23:37;;;;;;;47.03;20.63;;;;;;;;;;6236371;28;20029;-71
2022/12/14 05:26:38;;;;;;;41.33;20.65;;;;;;;;;;6241569;28;20572;-70
2022/12/14 05:29:38;;;;;;;48.60;23.20;;;;;;;;;;6235582;28;20315;-71
2022/12/14 05:32:38;;;;;;;46.33;22.08;;;;;;;;;;6232817;28;20048;-71
2022/12/14 05:35:38;;;;;;;51.43;22.00;;;;;;;;;;6227219;28;20756;-70
2022/12/14 05:38:39;;;;;;;50.00;21.98;;;;;;;;;;6225995;28;20508;-71
2022/12/14 05:41:40;;;;;;;49.45;22.13;;;;;;;;;;6230342;28;20543;-71
2022/12/14 05:44:40;;;;;;;49.23;21.23;;;;;;;;;;6233066;28;20112;-70
2022/12/14 05:47:41;;;;;;;52.17;21.70;;;;;;;;;;6223953;28;20301;-70
2022/12/14 05:50:41;;;;;;;35.07;16.20;;;;;;;;;;6218805;28;20028;-70
2022/12/14 05:53:41;;;;;;;61.60;23.70;;;;;;;;;;6225597;28;20037;-70
2022/12/14 05:56:41;;;;;;;47.93;21.63;;;;;;;;;;6235833;28;20010;-71
2022/12/14 05:59:42;;;;;;;51.53;21.02;;;;;;;;;;6236840;28;20365;-70
2022/12/14 06:02:42;;;;;;;57.45;24.13;;;;;;;;;;6231221;28;20544;-71
2022/12/14 06:05:42;;;;;;;47.23;20.30;;;;;;;;;;6228372;28;20021;-70
2022/12/14 06:08:43;;;;;;;46.30;20.87;;;;;;;;;;6231120;28;20025;-70
2022/12/14 06:11:45;;;;;;;51.78;20.95;;;;;;;;;;6226286;28;20029;-70
2022/12/14 06:14:45;;;;;;;51.90;22.88;;;;;;;;;;6238937;28;20496;-70
2022/12/14 06:17:45;;;;;;;51.03;22.40;;;;;;;;;;6229441;28;20545;-71
2022/12/14 06:20:46;;;;;;;49.13;22.87;;;;;;;;;;6228966;28;20263;-71
2022/12/14 06:23:46;;;;;;;48.83;22.40;;;;;;;;;;6225242;28;20028;-70
2022/12/14 06:26:47;;;;;;;49.67;23.13;;;;;;;;;;6222951;28;20617;-70
2022/12/14 06:29:47;;;;;;;56.20;23.33;;;;;;;;;;6233794;28;20021;-70
2022/12/14 06:32:47;;;;;;;55.00;22.77;;;;;;;;;;6236474;28;20037;-70
2022/12/14 06:35:47;;;;;;;59.80;24.43;;;;;;;;;;6237159;28;20120;-70
2022/12/14 06:38:48;;;;;;;60.63;26.43;;;;;;;;;;6237786;28;20040;-70
2022/12/14 06:41:48;;;;;;;61.13;26.80;;;;;;;;;;6238650;28;20100;-70
2022/12/14 06:44:48;;;;;;;60.87;25.30;;;;;;;;;;6230491;28;20018;-70
2022/12/14 06:47:49;;;;;;;58.72;26.30;;;;;;;;;;6220864;28;20034;-70
2022/12/14 06:50:49;;;;;;;63.65;27.20;;;;;;;;;;6220096;28;20381;-70
2022/12/14 06:53:50;;;;;;;54.77;25.87;;;;;;;;;;6217204;28;20017;-69
2022/12/14 06:56:51;;;;;;;60.75;25.83;;;;;;;;;;6238414;28;20535;-70
2022/12/14 06:59:51;;;;;;;39.93;19.87;;;;;;;;;;6219698;28;20053;-70
2022/12/14 07:02:51;;;;;;;62.07;26.37;;;;;;;;;;6214440;28;20068;-70
2022/12/14 07:05:54;;;;;;;58.63;24.90;;;;;;;;;;6221376;28;20033;-69
2022/12/14 07:08:56;;;;;;;61.00;27.95;;;;;;;;;;6218005;28;20060;-70
2022/12/14 07:11:56;;;;;;;55.13;23.92;;;;;;;;;;6217302;28;20023;-69
2022/12/14 07:14:57;;;;;;;51.00;26.23;;;;;;;;;;6219621;28;20026;-70
2022/12/14 07:17:57;;;;;;;50.35;21.55;;;;;;;;;;6233301;28;20385;-69
2022/12/14 07:20:57;;;;;;;62.15;27.42;;;;;;;;;;6222727;28;20505;-70
2022/12/14 07:23:58;;;;;;;66.00;26.88;;;;;;;;;;6221447;28;20025;-70
2022/12/14 07:26:59;;;;;;;58.47;28.92;;;;;;;;;;6225180;28;20275;-70
2022/12/14 07:29:59;;;;;;;62.33;27.00;;;;;;;;;;6231538;28;20367;-70
2022/12/14 07:32:59;;;;;;;66.63;28.93;;;;;;;;;;6227225;28;20214;-70
2022/12/14 07:36:04;;;;;;;64.00;27.80;;;;;;;;;;6225700;28;20373;-69
2022/12/14 07:39:04;;;;;;;60.40;26.88;;;;;;;;;;6222567;28;20072;-70
2022/12/14 07:42:04;;;;;;;64.43;29.03;;;;;;;;;;6226156;28;20017;-70
2022/12/14 07:45:04;;;;;;;55.00;25.95;;;;;;;;;;6233126;28;20037;-71
2022/12/14 07:48:05;;;;;;;54.87;27.43;;;;;;;;;;6236806;28;20573;-71
2022/12/14 07:51:07;;;;;;;64.40;28.55;;;;;;;;;;6233591;28;20112;-70
2022/12/14 07:54:07;;;;;;;54.97;24.85;;;;;;;;;;6225672;28;20068;-70
2022/12/14 07:57:07;;;;;;;59.10;29.47;;;;;;;;;;6220075;28;20026;-70
2022/12/14 08:00:08;;;;;;;67.32;28.15;;;;;;;;;;6220857;28;20045;-70
2022/12/14 08:03:08;;;;;;;61.33;31.57;;;;;;;;;;6218124;28;20073;-70
2022/12/14 08:06:09;;;;;;;69.27;26.63;;;;;;;;;;6218285;28;20057;-70
2022/12/14 08:09:10;;;;;;;56.00;25.40;;;;;;;;;;6218595;28;20427;-70
2022/12/14 08:12:10;;;;;;;70.82;28.95;;;;;;;;;;6227472;28;20367;-71
2022/12/14 08:15:11;;;;;;;62.83;29.42;;;;;;;;;;6227799;28;20202;-71
2022/12/14 08:18:11;;;;;;;62.03;28.03;;;;;;;;;;6233967;28;20362;-71
2022/12/14 08:21:11;;;;;;;66.78;28.33;;;;;;;;;;6231864;28;20464;-71
2022/12/14 08:24:12;;;;;;;67.33;29.87;;;;;;;;;;6222139;28;20811;-71
2022/12/14 08:27:12;;;;;;;62.30;28.10;;;;;;;;;;6233778;28;20033;-72
2022/12/14 08:30:12;;;;;;;59.13;29.27;;;;;;;;;;6229978;28;20513;-71
2022/12/14 08:33:12;;;;;;;67.87;31.37;;;;;;;;;;6221020;28;20109;-72
2022/12/14 08:36:17;;;;;;;62.67;28.58;;;;;;;;;;6211873;28;20028;-71
2022/12/14 08:39:17;;;;;;;66.47;29.88;;;;;;;;;;6223483;28;20263;-71
2022/12/14 08:42:17;;;;;;;55.80;26.50;;;;;;;;;;6233417;28;20033;-71
2022/12/14 08:45:18;;;;;;;59.47;27.07;;;;;;;;;;6225693;28;20432;-71
2022/12/14 08:48:18;;;;;;;56.20;26.90;;;;;;;;;;6224208;28;20024;-71
2022/12/14 08:51:19;;;;;;;57.10;27.48;;;;;;;;;;6230780;28;20385;-71
2022/12/14 08:54:19;;;;;;;56.77;27.80;;;;;;;;;;6231218;28;20023;-70
2022/12/14 08:57:19;;;;;;;46.87;21.67;;;;;;;;;;6225055;28;20429;-70
2022/12/14 09:00:19;;;;;;;62.13;27.55;;;;;;;;;;6228743;28;20524;-71
2022/12/14 09:03:19;;;;;;;49.80;24.40;;;;;;;;;;6219804;28;20113;-71
2022/12/14 09:06:26;;;;;;;63.72;28.10;;;;;;;;;;6223756;28;20473;-71
2022/12/14 09:09:26;;;;;;;63.40;27.52;;;;;;;;;;6227955;28;20048;-71
2022/12/14 09:12:27;;;;;;;57.50;27.50;;;;;;;;;;6222709;28;20306;-71
2022/12/14 09:15:27;;;;;;;60.53;28.67;;;;;;;;;;6222307;28;20021;-71
2022/12/14 09:18:27;;;;;;;57.38;25.50;;;;;;;;;;6224103;28;20302;-70
2022/12/14 09:21:28;;;;;;;59.03;28.70;;;;;;;;;;6216211;28;20420;-70
2022/12/14 09:24:28;;;;;;;61.70;30.53;;;;;;;;;;6218865;28;20032;-70
2022/12/14 09:27:28;;;;;;;70.57;33.70;;;;;;;;;;6223510;28;20064;-71
2022/12/14 09:30:29;;;;;;;77.03;35.00;;;;;;;;;;6233095;28;20032;-71
2022/12/14 09:33:29;;;;;;;68.93;33.97;;;;;;;;;;6246442;28;20623;-71
2022/12/14 09:36:30;;;;;;;67.87;31.77;;;;;;;;;;6225802;28;20064;-71
2022/12/14 09:39:30;;;;;;;68.10;31.40;;;;;;;;;;6221865;28;20084;-72
2022/12/14 09:42:46;;;;;;;69.13;31.10;;;;;;;;;;6222024;28;20625;-71
2022/12/14 09:45:49;;;;;;;61.72;31.38;;;;;;;;;;6222063;28;20525;-71
2022/12/14 09:48:50;;;;;;;72.35;33.53;;;;;;;;;;6227518;28;20028;-70
2022/12/14 09:51:52;;;;;;;77.20;32.80;;;;;;;;;;6227782;28;20028;-71
2022/12/14 09:54:52;;;;;;;;;;;;;;;;;;6236513;28;20010;-70
2022/12/14 09:58:04;;;;;;;58.50;28.02;;;;;;;;;;6239187;28;19925;-70
2022/12/14 10:01:20;;;;;;;70.35;31.13;;;;;;;;;;6233917;28;20256;-70
2022/12/14 10:04:44;;;;;;;66.05;29.77;;;;;;;;;;6249502;28;20298;-71
2022/12/14 10:07:58;;;;;;;62.75;31.25;;;;;;;;;;6234783;28;20041;-71
2022/12/14 10:11:08;;;;;;;69.35;29.85;;;;;;;;;;6236836;28;20026;-71
2022/12/14 10:14:24;;;;;;;63.38;29.30;;;;;;;;;;6225637;28;20367;-71
2022/12/14 10:17:43;;;;;;;69.03;30.25;;;;;;;;;;6228158;28;20505;-71
2022/12/14 10:20:51;;;;;;;70.50;32.00;;;;;;;;;;6224872;28;20496;-71
2022/12/14 10:24:03;;;;;;;63.75;28.05;;;;;;;;;;6235239;28;20133;-71
2022/12/14 10:27:05;;;;;;;67.35;28.65;;;;;;;;;;6240478;28;20028;-71
2022/12/14 10:30:07;;;;;;;69.85;32.25;;;;;;;;;;6237371;28;20685;-71
2022/12/14 10:33:16;;;;;;;71.47;32.65;;;;;;;;;;6234444;28;20494;-71
2022/12/14 10:36:18;;;;;;;73.13;32.22;;;;;;;;;;6236450;28;20333;-71
2022/12/14 10:39:27;;;;;;;68.25;29.70;;;;;;;;;;6228192;28;20025;-71
2022/12/14 10:42:40;;;;;;;65.63;28.95;;;;;;;;;;6224124;28;20082;-70
2022/12/14 10:45:47;;;;;;;73.25;33.75;;;;;;;;;;6225982;28;20091;-70
2022/12/14 10:48:52;;;;;;;59.80;25.23;;;;;;;;;;6218962;28;20464;-71
2022/12/14 10:52:04;;;;;;;60.13;23.95;;;;;;;;;;6228417;28;20365;-72
2022/12/14 10:55:10;;;;;;;61.17;25.98;;;;;;;;;;6230342;28;20377;-72
2022/12/14 10:58:10;;;;;;;64.10;25.65;;;;;;;;;;6229361;28;20041;-72
2022/12/14 11:01:12;;;;;;;66.50;23.20;;;;;;;;;;6237736;28;20071;-72
2022/12/14 11:04:30;;;;;;;62.95;22.52;;;;;;;;;;6235329;28;20096;-72
2022/12/14 11:07:33;;;;;;;53.58;20.73;;;;;;;;;;6216301;28;20013;-72
2022/12/14 11:10:35;;;;;;;55.05;20.42;;;;;;;;;;6220933;28;20381;-72
2022/12/14 11:13:35;;;;;;;48.70;19.70;;;;;;;;;;6221453;28;20098;-72
2022/12/14 11:16:37;;;;;;;40.63;19.13;;;;;;;;;;6232552;28;20018;-72
2022/12/14 11:19:37;;;;;;;43.17;17.23;;;;;;;;;;6230371;28;20088;-72
2022/12/14 11:22:47;;;;;;;38.15;19.60;;;;;;;;;;6226310;28;20444;-72
2022/12/14 11:25:49;;;;;;;45.55;19.85;;;;;;;;;;6223460;28;20033;-72
2022/12/14 11:28:57;;;;;;;55.65;25.25;;;;;;;;;;6227548;28;20013;-72
2022/12/14 11:31:57;;;;;;;57.42;25.85;;;;;;;;;;6239634;28;20018;-72
2022/12/14 11:34:57;;;;;;;49.20;21.10;;;;;;;;;;6225945;28;20021;-72
2022/12/14 11:37:58;;;;;;;45.03;22.10;;;;;;;;;;6222600;28;20025;-72
2022/12/14 11:41:00;;;;;;;51.00;22.80;;;;;;;;;;6231779;28;20037;-72
2022/12/14 11:44:21;;;;;;;41.13;20.27;;;;;;;;;;6225543;28;20025;-71
2022/12/14 11:47:22;;;;;;;32.25;17.88;;;;;;;;;;6225562;28;20034;-71
2022/12/14 11:50:23;;;;;;;27.70;13.85;;;;;;;;;;6234155;28;20112;-71
2022/12/14 11:53:23;;;;;;;42.60;24.20;;;;;;;;;;6232805;28;20014;-71
2022/12/14 11:56:24;;;;;;;29.70;14.73;;;;;;;;;;6230683;28;20478;-71
2022/12/14 11:59:27;;;;;;;33.27;14.10;;;;;;;;;;6233242;28;20046;-70
2022/12/14 12:02:34;;;;;;;31.60;16.27;;;;;;;;;;6234321;28;20071;-70
2022/12/14 12:05:38;;;;;;;32.20;17.30;;;;;;;;;;6237402;28;20101;-70
2022/12/14 12:08:41;;;;;;;28.92;15.40;;;;;;;;;;6234387;28;20025;-71
2022/12/14 12:11:43;;;;;;;27.58;13.27;;;;;;;;;;6220640;28;20108;-71
2022/12/14 12:14:43;;;;;;;24.15;12.43;;;;;;;;;;6224421;28;20025;-71
2022/12/14 12:17:45;;;;;;;29.60;15.73;;;;;;;;;;6233887;28;20056;-71
2022/12/14 12:20:46;;;;;;;30.10;14.80;;;;;;;;;;6223815;28;20037;-70
2022/12/14 12:23:50;;;;;;;30.50;14.97;;;;;;;;;;6217377;28;20018;-71
2022/12/14 12:26:50;;;;;;;41.95;19.50;;;;;;;;;;6224179;28;20137;-70
2022/12/14 12:29:58;;;;;;;45.60;20.23;;;;;;;;;;6223982;28;20010;-70
2022/12/14 12:33:04;;;;;;;53.35;22.98;;;;;;;;;;6219514;28;20030;-70
2022/12/14 12:36:04;;;;;;;51.25;23.40;;;;;;;;;;6225602;28;20029;-70
2022/12/14 12:39:15;;;;;;;44.60;20.30;;;;;;;;;;6226013;28;20029;-70
2022/12/14 12:42:33;;;;;;;43.05;19.17;;;;;;;;;;6231910;28;20303;-70
2022/12/14 12:45:46;;;;;;;34.97;18.98;;;;;;;;;;6227655;28;20029;-70
2022/12/14 12:48:46;;;;;;;33.30;16.33;;;;;;;;;;6226005;28;20119;-70
2022/12/14 12:51:57;;;;;;;35.28;16.95;;;;;;;;;;6230259;28;20196;-70
2022/12/14 12:55:09;;;;;;;38.43;20.03;;;;;;;;;;6235323;28;20322;-70
2022/12/14 12:58:16;;;;;;;50.28;22.77;;;;;;;;;;6234641;28;20670;-70
2022/12/14 13:01:19;;;;;;;58.38;25.42;;;;;;;;;;6232462;28;20025;-71
2022/12/14 13:04:36;;;;;;;51.53;24.17;;;;;;;;;;6231822;28;20443;-70
2022/12/14 13:07:50;;;;;;;56.05;25.15;;;;;;;;;;6229552;28;20087;-70
2022/12/14 13:10:52;;;;;;;60.55;25.90;;;;;;;;;;6227478;28;20295;-70
2022/12/14 13:13:52;;;;;;;;;;;;;;;;;;6231654;28;20005;-71
2022/12/14 13:16:53;;;;;;;55.58;25.90;;;;;;;;;;6230559;28;19948;-70
2022/12/14 13:19:55;;;;;;;66.20;27.05;;;;;;;;;;6238969;28;20160;-70
2022/12/14 13:22:55;;;;;;;58.13;27.13;;;;;;;;;;6228853;28;20040;-71
2022/12/14 13:26:09;;;;;;;53.10;25.03;;;;;;;;;;6229396;28;20018;-70
2022/12/14 13:29:27;;;;;;;50.78;25.23;;;;;;;;;;6221603;28;20587;-70
2022/12/14 13:32:31;;;;;;;54.53;22.60;;;;;;;;;;6225924;28;20010;-70
2022/12/14 13:35:40;;;;;;;50.53;24.50;;;;;;;;;;6232492;28;20352;-70
2022/12/14 13:38:52;;;;;;;51.42;24.30;;;;;;;;;;6221605;28;20129;-70
2022/12/14 13:42:28;;;;;;;60.15;27.75;;;;;;;;;;6230907;28;20096;-70
2022/12/14 13:45:31;;;;;;;57.10;23.65;;;;;;;;;;6229182;28;20113;-70
2022/12/14 13:48:38;;;;;;;51.38;25.67;;;;;;;;;;6218725;28;20401;-70
2022/12/14 13:51:39;;;;;;;53.33;24.50;;;;;;;;;;6223599;28;20437;-70
2022/12/14 13:54:39;;;;;;;50.33;23.60;;;;;;;;;;6232607;28;20014;-70
2022/12/14 13:57:40;;;;;;;53.53;23.70;;;;;;;;;;6226829;28;20536;-70
2022/12/14 14:00:43;;;;;;;49.23;21.73;;;;;;;;;;6234801;28;20456;-70
2022/12/14 14:03:47;;;;;;;47.28;21.83;;;;;;;;;;6233896;28;20750;-70
2022/12/14 14:06:48;;;;;;;52.20;23.33;;;;;;;;;;6235803;28;20018;-70
2022/12/14 14:09:54;;;;;;;49.97;23.23;;;;;;;;;;6228363;28;20638;-70
2022/12/14 14:12:55;;;;;;;43.70;21.13;;;;;;;;;;6234487;28;20116;-70
2022/12/14 14:16:08;;;;;;;45.53;21.63;;;;;;;;;;6230474;28;20522;-70
2022/12/14 14:19:11;;;;;;;46.90;20.60;;;;;;;;;;6239194;28;20249;-70
2022/12/14 14:22:17;;;;;;;47.78;22.33;;;;;;;;;;6235520;28;20031;-70
2022/12/14 14:25:40;;;;;;;41.92;20.02;;;;;;;;;;6241712;28;20029;-70
2022/12/14 14:28:40;;;;;;;41.03;22.65;;;;;;;;;;6224245;28;20363;-70
2022/12/14 14:31:44;;;;;;;43.13;19.57;;;;;;;;;;6229719;28;20235;-70
2022/12/14 14:34:47;;;;;;;45.72;19.40;;;;;;;;;;6234489;28;20026;-70
2022/12/14 14:37:53;;;;;;;45.17;20.35;;;;;;;;;;6231359;28;21728;-70
2022/12/14 14:40:59;;;;;;;53.05;21.15;;;;;;;;;;6233321;28;20313;-71
2022/12/14 14:44:01;;;;;;;37.47;17.02;;;;;;;;;;6232368;28;20037;-70
2022/12/14 14:47:01;;;;;;;50.97;24.25;;;;;;;;;;6239297;28;20028;-70
2022/12/14 14:50:02;;;;;;;41.57;27.23;;;;;;;;;;6230874;28;20030;-70
2022/12/14 14:53:09;;;;;;;26.45;15.98;;;;;;;;;;6232519;28;20025;-70
2022/12/14 14:56:10;;;;;;;47.53;22.65;;;;;;;;;;6227064;28;20679;-70
2022/12/14 14:59:16;;;;;;;39.43;21.50;;;;;;;;;;6236500;28;20140;-70
2022/12/14 15:02:30;;;;;;;56.33;32.33;;;;;;;;;;6233125;28;20037;-70
2022/12/14 15:05:33;;;;;;;49.15;21.48;;;;;;;;;;6234081;28;20081;-70
2022/12/14 15:08:36;;;;;;;38.33;19.25;;;;;;;;;;6237856;28;20048;-70
2022/12/14 15:11:43;;;;;;;49.45;22.95;;;;;;;;;;6233622;28;20471;-70
2022/12/14 15:14:51;;;;;;;43.70;21.98;;;;;;;;;;6237464;28;20048;-70
2022/12/14 15:17:51;;;;;;;53.50;24.58;;;;;;;;;;6242160;28;20021;-70
2022/12/14 15:20:55;;;;;;;42.83;19.33;;;;;;;;;;6238252;28;20023;-70
2022/12/14 15:23:55;;;;;;;47.72;21.23;;;;;;;;;;6236729;28;20026;-70
2022/12/14 15:26:55;;;;;;;48.77;24.40;;;;;;;;;;6237626;28;20017;-70
2022/12/14 15:30:15;;;;;;;55.93;25.60;;;;;;;;;;6237121;28;20020;-70
2022/12/14 15:33:21;;;;;;;46.70;23.85;;;;;;;;;;6237727;28;20393;-70
2022/12/14 15:36:24;;;;;;;53.58;29.40;;;;;;;;;;6235078;28;20072;-69
2022/12/14 15:39:32;;;;;;;71.22;34.22;;;;;;;;;;6235540;28;20028;-69
2022/12/14 15:42:33;;;;;;;59.63;29.33;;;;;;;;;;6236748;28;20037;-69
2022/12/14 15:45:40;;;;;;;69.93;33.80;;;;;;;;;;6237295;28;20025;-69
2022/12/14 15:48:40;;;;;;;65.40;34.00;;;;;;;;;;6235172;28;20029;-70
2022/12/14 15:51:41;;;;;;;71.72;33.80;;;;;;;;;;6237649;28;20018;-69
2022/12/14 15:54:42;;;;;;;53.72;27.10;;;;;;;;;;6235458;28;20037;-70
2022/12/14 15:57:42;;;;;;;52.77;23.97;;;;;;;;;;6236259;28;20053;-69
2022/12/14 16:00:45;;;;;;;45.30;22.17;;;;;;;;;;6235981;28;20021;-69
2022/12/14 16:03:47;;;;;;;63.55;33.40;;;;;;;;;;6236522;28;20509;-69
2022/12/14 16:06:52;;;;;;;44.13;23.17;;;;;;;;;;6231141;28;20013;-71
2022/12/14 16:10:00;;;;;;;43.60;23.63;;;;;;;;;;6232377;28;20468;-69
2022/12/14 16:13:14;;;;;;;50.22;23.85;;;;;;;;;;6236334;28;20020;-69
2022/12/14 16:16:14;;;;;;;49.42;24.80;;;;;;;;;;6236650;28;20018;-69
2022/12/14 16:19:22;;;;;;;44.83;19.73;;;;;;;;;;6229523;28;20076;-69
2022/12/14 16:22:27;;;;;;;51.72;21.38;;;;;;;;;;6222821;28;20029;-69
2022/12/14 16:25:27;;;;;;;42.58;20.60;;;;;;;;;;6218383;28;20037;-69
2022/12/14 16:28:30;;;;;;;51.07;23.20;;;;;;;;;;6225552;28;20520;-69
2022/12/14 16:31:30;;;;;;;44.03;21.23;;;;;;;;;;6233176;28;20064;-70
2022/12/14 16:34:32;;;;;;;34.83;18.70;;;;;;;;;;6236392;28;20021;-69
2022/12/14 16:37:32;;;;;;;54.95;21.17;;;;;;;;;;6236103;28;20051;-69
2022/12/14 16:40:34;;;;;;;33.73;15.40;;;;;;;;;;6236554;28;20022;-69
2022/12/14 16:43:34;;;;;;;;;;;;;;;;;;6232078;28;20033;-69
2022/12/14 16:46:34;;;;;;;54.65;23.25;;;;;;;;;;6221176;28;19917;-69
2022/12/14 16:49:38;;;;;;;48.73;22.07;;;;;;;;;;6221877;28;20112;-69
2022/12/14 16:52:38;;;;;;;50.58;24.80;;;;;;;;;;6232657;28;20025;-69
2022/12/14 16:55:58;;;;;;;78.67;36.50;;;;;;;;;;6244197;28;20369;-70
2022/12/14 16:59:03;;;;;;;44.40;22.52;;;;;;;;;;6227983;28;20037;-70
2022/12/14 17:02:03;;;;;;;54.42;26.13;;;;;;;;;;6232398;28;20010;-70
2022/12/14 17:05:10;;;;;;;50.50;24.30;;;;;;;;;;6229018;28;20018;-69
2022/12/14 17:08:10;;;;;;;44.70;21.42;;;;;;;;;;6221475;28;20025;-69
2022/12/14 17:11:11;;;;;;;42.97;21.17;;;;;;;;;;6218883;28;20033;-69
2022/12/14 17:14:12;;;;;;;48.10;23.23;;;;;;;;;;6236963;28;20389;-69
2022/12/14 17:17:14;;;;;;;47.80;21.07;;;;;;;;;;6224011;28;20029;-69
2022/12/14 17:20:26;;;;;;;41.92;19.73;;;;;;;;;;6226896;28;20584;-70
2022/12/14 17:23:26;;;;;;;43.83;21.65;;;;;;;;;;6223811;28;20504;-70
2022/12/14 17:26:27;;;;;;;46.13;20.87;;;;;;;;;;6227109;28;20104;-69
2022/12/14 17:29:29;;;;;;;44.42;21.63;;;;;;;;;;6220494;28;20109;-69
2022/12/14 17:32:31;;;;;;;46.33;20.83;;;;;;;;;;6226796;28;20014;-70
2022/12/14 17:35:31;;;;;;;46.22;21.88;;;;;;;;;;6218614;28;20027;-70
2022/12/14 17:38:32;;;;;;;49.07;23.00;;;;;;;;;;6238859;28;20116;-70
2022/12/14 17:41:33;;;;;;;47.13;23.57;;;;;;;;;;6240300;28;20303;-70
2022/12/14 17:44:33;;;;;;;49.28;22.67;;;;;;;;;;6236676;28;20115;-71
2022/12/14 17:47:34;;;;;;;55.13;24.00;;;;;;;;;;6235118;28;20402;-70
2022/12/14 17:50:35;;;;;;;55.40;23.20;;;;;;;;;;6236469;28;20021;-70
2022/12/14 17:53:35;;;;;;;48.53;24.30;;;;;;;;;;6241435;28;20029;-70
2022/12/14 17:56:35;;;;;;;55.43;24.17;;;;;;;;;;6240373;28;20014;-71
2022/12/14 17:59:35;;;;;;;53.83;22.73;;;;;;;;;;6237539;28;20065;-71
2022/12/14 18:02:36;;;;;;;58.00;21.60;;;;;;;;;;6244669;28;20103;-71